Aviation Digital Data Service (ADDS)

Output produced by TAFs form (1322 UTC 11 December 2017)
found at http://www.aviationweather.gov/adds/tafs/
 
KPDK 111253Z 20004KT 8SM CLR M03/M04 A3019 RMK AO2 SLP241 I1000 T10281039 $
KPDK 111136Z 1112/1212 26005KT P6SM SKC 
     FM111800 25008KT P6SM FEW070 
     FM112300 24005KT P6SM FEW250 
     FM121100 30010KT P6SM BKN250